sensor_id;sensor_type;location;lat;lon;timestamp;pressure;altitude;pressure_sealevel;temperature;humidity
68628;BME280;55611;48.602;9.490;2023-05-08T00:01:48;97150;;;16.8;60.5
68628;BME280;55611;48.602;9.490;2023-05-08T00:04:18;97140;;;16.9;60.5
68628;BME280;55611;48.602;9.490;2023-05-08T00:09:19;97140;;;16.9;60.5
68628;BME280;55611;48.602;9.490;2023-05-08T00:11:49;97150;;;16.9;60.5
68628;BME280;55611;48.602;9.490;2023-05-08T00:14:20;97140;;;16.9;60.5
68628;BME280;55611;48.602;9.490;2023-05-08T00:16:50;97140;;;16.9;60.5
68628;BME280;55611;48.602;9.490;2023-05-08T00:19:21;97140;;;16.8;61
68628;BME280;55611;48.602;9.490;2023-05-08T00:21:51;97140;;;16.9;61
68628;BME280;55611;48.602;9.490;2023-05-08T00:24:22;97140;;;16.9;61
68628;BME280;55611;48.602;9.490;2023-05-08T00:26:52;97140;;;16.9;61
68628;BME280;55611;48.602;9.490;2023-05-08T00:29:23;97140;;;16.8;61
68628;BME280;55611;48.602;9.490;2023-05-08T00:31:53;97140;;;16.9;61
68628;BME280;55611;48.602;9.490;2023-05-08T00:36:55;97140;;;17;61
68628;BME280;55611;48.602;9.490;2023-05-08T00:39:25;97140;;;17;61
68628;BME280;55611;48.602;9.490;2023-05-08T00:41:55;97140;;;17;61
68628;BME280;55611;48.602;9.490;2023-05-08T00:44:26;97140;;;17;61
68628;BME280;55611;48.602;9.490;2023-05-08T00:46:56;97140;;;17.1;61
68628;BME280;55611;48.602;9.490;2023-05-08T00:49:27;97140;;;17;61
68628;BME280;55611;48.602;9.490;2023-05-08T00:51:57;97140;;;17;61
68628;BME280;55611;48.602;9.490;2023-05-08T00:54:28;97140;;;17;61
68628;BME280;55611;48.602;9.490;2023-05-08T00:56:58;97140;;;17;61
68628;BME280;55611;48.602;9.490;2023-05-08T00:59:29;97140;;;17;61
68628;BME280;55611;48.602;9.490;2023-05-08T01:02:00;97140;;;17;61
68628;BME280;55611;48.602;9.490;2023-05-08T01:04:30;97140;;;16.9;61
68628;BME280;55611;48.602;9.490;2023-05-08T01:07:01;97140;;;16.9;61
68628;BME280;55611;48.602;9.490;2023-05-08T01:09:31;97140;;;16.8;61
68628;BME280;55611;48.602;9.490;2023-05-08T01:12:19;97140;;;16.9;61
68628;BME280;55611;48.602;9.490;2023-05-08T01:17:08;97150;;;17;61
68628;BME280;55611;48.602;9.490;2023-05-08T01:19:39;97150;;;17;61
68628;BME280;55611;48.602;9.490;2023-05-08T01:24:41;97150;;;16.9;61
68628;BME280;55611;48.602;9.490;2023-05-08T01:32:09;97150;;;16.8;61
68628;BME280;55611;48.602;9.490;2023-05-08T01:34:38;97160;;;16.8;61
68628;BME280;55611;48.602;9.490;2023-05-08T01:37:07;97160;;;16.8;61
68628;BME280;55611;48.602;9.490;2023-05-08T01:39:42;97160;;;16.8;61
68628;BME280;55611;48.602;9.490;2023-05-08T01:42:10;97160;;;16.8;61
68628;BME280;55611;48.602;9.490;2023-05-08T01:44:40;97160;;;16.7;61
68628;BME280;55611;48.602;9.490;2023-05-08T01:47:08;97160;;;16.7;61
68628;BME280;55611;48.602;9.490;2023-05-08T01:49:40;97170;;;16.7;61
68628;BME280;55611;48.602;9.490;2023-05-08T01:52:12;97170;;;16.7;61
68628;BME280;55611;48.602;9.490;2023-05-08T01:54:48;97180;;;16.7;61
68628;BME280;55611;48.602;9.490;2023-05-08T01:59:41;97180;;;16.7;61
68628;BME280;55611;48.602;9.490;2023-05-08T02:02:11;97180;;;16.7;61
68628;BME280;55611;48.602;9.490;2023-05-08T02:04:42;97180;;;16.8;61
68628;BME280;55611;48.602;9.490;2023-05-08T02:07:12;97180;;;16.8;61
68628;BME280;55611;48.602;9.490;2023-05-08T02:09:43;97180;;;16.8;61
68628;BME280;55611;48.602;9.490;2023-05-08T02:12:13;97180;;;16.8;61
68628;BME280;55611;48.602;9.490;2023-05-08T02:14:44;97180;;;16.8;61
68628;BME280;55611;48.602;9.490;2023-05-08T02:17:15;97180;;;16.8;61
68628;BME280;55611;48.602;9.490;2023-05-08T02:19:45;97180;;;16.8;61
68628;BME280;55611;48.602;9.490;2023-05-08T02:22:15;97180;;;16.7;61
68628;BME280;55611;48.602;9.490;2023-05-08T02:27:16;97180;;;16.8;61
68628;BME280;55611;48.602;9.490;2023-05-08T02:29:47;97180;;;16.9;61
68628;BME280;55611;48.602;9.490;2023-05-08T02:32:18;97180;;;16.9;61
68628;BME280;55611;48.602;9.490;2023-05-08T02:34:48;97180;;;16.9;61
68628;BME280;55611;48.602;9.490;2023-05-08T02:37:19;97180;;;16.9;61
68628;BME280;55611;48.602;9.490;2023-05-08T02:39:49;97190;;;16.9;61
68628;BME280;55611;48.602;9.490;2023-05-08T02:42:19;97190;;;16.9;61
68628;BME280;55611;48.602;9.490;2023-05-08T02:44:50;97190;;;17;61
68628;BME280;55611;48.602;9.490;2023-05-08T02:47:22;97180;;;17;61
68628;BME280;55611;48.602;9.490;2023-05-08T02:49:52;97180;;;17;61
68628;BME280;55611;48.602;9.490;2023-05-08T02:52:23;97180;;;17;61
68628;BME280;55611;48.602;9.490;2023-05-08T02:54:57;97180;;;17;61
68628;BME280;55611;48.602;9.490;2023-05-08T02:59:56;97180;;;17;61
68628;BME280;55611;48.602;9.490;2023-05-08T03:02:56;97180;;;17;61
68628;BME280;55611;48.602;9.490;2023-05-08T03:04:55;97180;;;17;61
68628;BME280;55611;48.602;9.490;2023-05-08T03:07:24;97170;;;17;61
68628;BME280;55611;48.602;9.490;2023-05-08T03:09:58;97180;;;17;61
68628;BME280;55611;48.602;9.490;2023-05-08T03:12:26;97170;;;17;61
68628;BME280;55611;48.602;9.490;2023-05-08T03:15:01;97170;;;17;61
68628;BME280;55611;48.602;9.490;2023-05-08T03:22:27;97170;;;17.1;61
68628;BME280;55611;48.602;9.490;2023-05-08T03:24:58;97170;;;17.1;61
68628;BME280;55611;48.602;9.490;2023-05-08T03:27:28;97170;;;17.1;61
68628;BME280;55611;48.602;9.490;2023-05-08T03:29:59;97170;;;17.1;61
68628;BME280;55611;48.602;9.490;2023-05-08T03:32:29;97170;;;17.1;61
68628;BME280;55611;48.602;9.490;2023-05-08T03:37:30;97180;;;17.1;61
68628;BME280;55611;48.602;9.490;2023-05-08T03:40:00;97170;;;17.1;61
68628;BME280;55611;48.602;9.490;2023-05-08T03:42:31;97180;;;17.1;61
68628;BME280;55611;48.602;9.490;2023-05-08T03:45:02;97170;;;17.1;61
68628;BME280;55611;48.602;9.490;2023-05-08T03:50:02;97170;;;17.1;61
68628;BME280;55611;48.602;9.490;2023-05-08T03:52:33;97170;;;17.1;61
68628;BME280;55611;48.602;9.490;2023-05-08T03:55:04;97180;;;17;61
68628;BME280;55611;48.602;9.490;2023-05-08T03:57:34;97180;;;17;61.5
68628;BME280;55611;48.602;9.490;2023-05-08T04:03:09;97190;;;17.1;61.5
68628;BME280;55611;48.602;9.490;2023-05-08T04:05:16;97190;;;17.1;61
68628;BME280;55611;48.602;9.490;2023-05-08T04:07:37;97190;;;17.1;61
68628;BME280;55611;48.602;9.490;2023-05-08T04:10:08;97190;;;17.1;61
68628;BME280;55611;48.602;9.490;2023-05-08T04:12:38;97190;;;17.2;61
68628;BME280;55611;48.602;9.490;2023-05-08T04:20:10;97190;;;17.2;61.5
68628;BME280;55611;48.602;9.490;2023-05-08T04:22:39;97200;;;17.2;61.5
68628;BME280;55611;48.602;9.490;2023-05-08T04:25:09;97200;;;17.2;61
68628;BME280;55611;48.602;9.490;2023-05-08T04:27:40;97200;;;17.2;61.5
68628;BME280;55611;48.602;9.490;2023-05-08T04:30:10;97200;;;17.2;61
68628;BME280;55611;48.602;9.490;2023-05-08T04:32:41;97210;;;17.2;61.5
68628;BME280;55611;48.602;9.490;2023-05-08T04:35:11;97210;;;17.2;61.5
68628;BME280;55611;48.602;9.490;2023-05-08T04:37:42;97210;;;17.2;61.5
68628;BME280;55611;48.602;9.490;2023-05-08T04:40:12;97210;;;17.1;61.5
68628;BME280;55611;48.602;9.490;2023-05-08T04:42:43;97220;;;17.1;61.5
68628;BME280;55611;48.602;9.490;2023-05-08T04:45:13;97220;;;17.1;61.5
68628;BME280;55611;48.602;9.490;2023-05-08T04:47:44;97220;;;17.2;61.5
68628;BME280;55611;48.602;9.490;2023-05-08T04:50:14;97220;;;17.2;61.5
68628;BME280;55611;48.602;9.490;2023-05-08T04:52:45;97220;;;17.2;61.5
68628;BME280;55611;48.602;9.490;2023-05-08T04:57:46;97230;;;17.2;61.5
68628;BME280;55611;48.602;9.490;2023-05-08T05:00:16;97230;;;17.2;61.5
68628;BME280;55611;48.602;9.490;2023-05-08T05:02:47;97230;;;17.3;61.5
68628;BME280;55611;48.602;9.490;2023-05-08T05:05:18;97230;;;17.3;61.5
68628;BME280;55611;48.602;9.490;2023-05-08T05:07:48;97230;;;17.3;61.5
68628;BME280;55611;48.602;9.490;2023-05-08T05:12:49;97240;;;17.1;61.5
68628;BME280;55611;48.602;9.490;2023-05-08T05:15:19;97240;;;16.9;61.5
68628;BME280;55611;48.602;9.490;2023-05-08T05:17:50;97240;;;16.9;61.5
68628;BME280;55611;48.602;9.490;2023-05-08T05:20:20;97240;;;16.8;61.5
68628;BME280;55611;48.602;9.490;2023-05-08T05:22:51;97240;;;16.8;61.5
68628;BME280;55611;48.602;9.490;2023-05-08T05:25:21;97240;;;16.8;61.5
68628;BME280;55611;48.602;9.490;2023-05-08T05:27:52;97250;;;16.9;61.5
68628;BME280;55611;48.602;9.490;2023-05-08T05:30:22;97250;;;16.9;61.5
68628;BME280;55611;48.602;9.490;2023-05-08T05:32:53;97250;;;16.9;61.5
68628;BME280;55611;48.602;9.490;2023-05-08T05:35:23;97250;;;17;61.5
68628;BME280;55611;48.602;9.490;2023-05-08T05:37:54;97250;;;17.1;61.5
68628;BME280;55611;48.602;9.490;2023-05-08T05:40:24;97250;;;17.1;61.5
68628;BME280;55611;48.602;9.490;2023-05-08T05:42:55;97250;;;17.2;61.5
68628;BME280;55611;48.602;9.490;2023-05-08T05:45:25;97250;;;17.2;61.5
68628;BME280;55611;48.602;9.490;2023-05-08T05:47:56;97250;;;17.2;61.5
68628;BME280;55611;48.602;9.490;2023-05-08T05:50:27;97250;;;17.3;61.5
68628;BME280;55611;48.602;9.490;2023-05-08T05:52:57;97260;;;17.3;61.5
68628;BME280;55611;48.602;9.490;2023-05-08T05:55:51;97260;;;17.2;61.5
68628;BME280;55611;48.602;9.490;2023-05-08T05:57:58;97260;;;17.2;61.5
68628;BME280;55611;48.602;9.490;2023-05-08T06:00:29;97250;;;17.2;61.5
68628;BME280;55611;48.602;9.490;2023-05-08T06:08:00;97250;;;17.4;61.5
68628;BME280;55611;48.602;9.490;2023-05-08T06:13:00;97250;;;17.6;61.5
68628;BME280;55611;48.602;9.490;2023-05-08T06:15:31;97250;;;17.7;61.5
68628;BME280;55611;48.602;9.490;2023-05-08T06:18:02;97250;;;17.7;61.5
68628;BME280;55611;48.602;9.490;2023-05-08T06:20:32;97260;;;17.7;61.5
68628;BME280;55611;48.602;9.490;2023-05-08T06:23:03;97260;;;17.7;61.5
68628;BME280;55611;48.602;9.490;2023-05-08T06:25:33;97260;;;17.7;61.5
68628;BME280;55611;48.602;9.490;2023-05-08T06:28:04;97250;;;17.7;61.5
68628;BME280;55611;48.602;9.490;2023-05-08T06:30:34;97260;;;17.8;61.5
68628;BME280;55611;48.602;9.490;2023-05-08T06:33:05;97260;;;17.8;61.5
68628;BME280;55611;48.602;9.490;2023-05-08T06:35:35;97260;;;17.8;61.5
68628;BME280;55611;48.602;9.490;2023-05-08T06:40:38;97260;;;17.8;61.5
68628;BME280;55611;48.602;9.490;2023-05-08T06:43:06;97260;;;17.8;61.5
68628;BME280;55611;48.602;9.490;2023-05-08T06:45:37;97260;;;17.8;61.5
68628;BME280;55611;48.602;9.490;2023-05-08T06:48:08;97260;;;17.9;61
68628;BME280;55611;48.602;9.490;2023-05-08T06:50:38;97260;;;17.9;61.5
68628;BME280;55611;48.602;9.490;2023-05-08T06:53:08;97260;;;17.9;61.5
68628;BME280;55611;48.602;9.490;2023-05-08T06:55:41;97260;;;17.9;61.5
68628;BME280;55611;48.602;9.490;2023-05-08T06:58:10;97260;;;17.8;61.5
68628;BME280;55611;48.602;9.490;2023-05-08T07:00:41;97270;;;17.8;61.5
68628;BME280;55611;48.602;9.490;2023-05-08T07:03:11;97270;;;17.8;61.5
68628;BME280;55611;48.602;9.490;2023-05-08T07:10:42;97270;;;17.8;61.5
68628;BME280;55611;48.602;9.490;2023-05-08T07:13:12;97270;;;17.8;61.5
68628;BME280;55611;48.602;9.490;2023-05-08T07:15:43;97270;;;17.8;61.5
68628;BME280;55611;48.602;9.490;2023-05-08T07:18:13;97270;;;17.8;61.5
68628;BME280;55611;48.602;9.490;2023-05-08T07:20:44;97270;;;17.8;61.5
68628;BME280;55611;48.602;9.490;2023-05-08T07:23:14;97270;;;17.8;61.5
68628;BME280;55611;48.602;9.490;2023-05-08T07:25:45;97270;;;17.9;61.5
68628;BME280;55611;48.602;9.490;2023-05-08T07:28:15;97270;;;18;61.5
68628;BME280;55611;48.602;9.490;2023-05-08T07:30:46;97270;;;18;61.5
68628;BME280;55611;48.602;9.490;2023-05-08T07:33:17;97280;;;18.1;62
68628;BME280;55611;48.602;9.490;2023-05-08T07:50:49;97290;;;18.7;61.5
68628;BME280;55611;48.602;9.490;2023-05-08T07:53:19;97290;;;18.7;61.5
68628;BME280;55611;48.602;9.490;2023-05-08T07:55:50;97290;;;18.8;61.5
68628;BME280;55611;48.602;9.490;2023-05-08T07:58:20;97280;;;18.9;61.5
68628;BME280;55611;48.602;9.490;2023-05-08T08:00:51;97290;;;18.8;61.5
68628;BME280;55611;48.602;9.490;2023-05-08T08:03:21;97290;;;18.7;61
68628;BME280;55611;48.602;9.490;2023-05-08T08:05:52;97290;;;18.6;61.5
68628;BME280;55611;48.602;9.490;2023-05-08T08:08:22;97290;;;18.5;61.5
68628;BME280;55611;48.602;9.490;2023-05-08T08:10:53;97290;;;18.5;61.5
68628;BME280;55611;48.602;9.490;2023-05-08T08:13:23;97290;;;18.4;62
68628;BME280;55611;48.602;9.490;2023-05-08T08:15:54;97300;;;18.3;62
68628;BME280;55611;48.602;9.490;2023-05-08T08:18:24;97300;;;18.2;62.5
68628;BME280;55611;48.602;9.490;2023-05-08T08:20:55;97290;;;18.4;62.5
68628;BME280;55611;48.602;9.490;2023-05-08T08:23:25;97290;;;18.4;62.5
68628;BME280;55611;48.602;9.490;2023-05-08T08:25:56;97290;;;18.5;62.5
68628;BME280;55611;48.602;9.490;2023-05-08T08:28:26;97300;;;18.6;62.5
68628;BME280;55611;48.602;9.490;2023-05-08T08:30:57;97300;;;18.6;62.5
68628;BME280;55611;48.602;9.490;2023-05-08T08:33:27;97300;;;18.6;62
68628;BME280;55611;48.602;9.490;2023-05-08T08:35:58;97300;;;18.6;62
68628;BME280;55611;48.602;9.490;2023-05-08T08:43:29;97290;;;18.7;62
68628;BME280;55611;48.602;9.490;2023-05-08T08:46:01;97290;;;18.7;62
68628;BME280;55611;48.602;9.490;2023-05-08T08:48:30;97290;;;18.7;62
68628;BME280;55611;48.602;9.490;2023-05-08T08:51:01;97290;;;18.8;62
68628;BME280;55611;48.602;9.490;2023-05-08T08:53:34;97290;;;18.8;62
68628;BME280;55611;48.602;9.490;2023-05-08T08:56:02;97290;;;19;62
68628;BME280;55611;48.602;9.490;2023-05-08T08:58:35;97290;;;19.1;62
68628;BME280;55611;48.602;9.490;2023-05-08T09:01:03;97290;;;19.2;62
68628;BME280;55611;48.602;9.490;2023-05-08T09:03:33;97300;;;19.3;62
68628;BME280;55611;48.602;9.490;2023-05-08T09:06:04;97300;;;19.3;62
68628;BME280;55611;48.602;9.490;2023-05-08T09:13:35;97290;;;19.7;62.5
68628;BME280;55611;48.602;9.490;2023-05-08T09:16:05;97290;;;20;62.5
68628;BME280;55611;48.602;9.490;2023-05-08T09:18:36;97290;;;20.3;62.5
68628;BME280;55611;48.602;9.490;2023-05-08T09:21:06;97290;;;20.5;62.5
68628;BME280;55611;48.602;9.490;2023-05-08T09:24:08;97290;;;20.6;62.5
68628;BME280;55611;48.602;9.490;2023-05-08T09:26:07;97290;;;20.7;62
68628;BME280;55611;48.602;9.490;2023-05-08T09:28:38;97290;;;20.7;62
68628;BME280;55611;48.602;9.490;2023-05-08T09:31:08;97290;;;20.8;62
68628;BME280;55611;48.602;9.490;2023-05-08T09:33:42;97290;;;20.9;62
68628;BME280;55611;48.602;9.490;2023-05-08T09:36:23;97290;;;21;62
68628;BME280;55611;48.602;9.490;2023-05-08T09:41:11;97290;;;21.2;62
68628;BME280;55611;48.602;9.490;2023-05-08T09:43:41;97290;;;21.3;62
68628;BME280;55611;48.602;9.490;2023-05-08T09:46:18;97290;;;21.2;62
68628;BME280;55611;48.602;9.490;2023-05-08T09:48:42;97290;;;21.4;62
68628;BME280;55611;48.602;9.490;2023-05-08T09:51:12;97300;;;21.4;62
68628;BME280;55611;48.602;9.490;2023-05-08T09:53:43;97300;;;21.4;62
68628;BME280;55611;48.602;9.490;2023-05-08T09:56:13;97300;;;21.3;62
68628;BME280;55611;48.602;9.490;2023-05-08T09:58:44;97300;;;21.2;62
68628;BME280;55611;48.602;9.490;2023-05-08T10:01:45;97300;;;21;62.5
68628;BME280;55611;48.602;9.490;2023-05-08T10:03:45;97300;;;21.1;62.5
68628;BME280;55611;48.602;9.490;2023-05-08T10:06:15;97300;;;21.2;62
68628;BME280;55611;48.602;9.490;2023-05-08T10:08:46;97300;;;21.2;62
68628;BME280;55611;48.602;9.490;2023-05-08T10:11:17;97300;;;21.3;62.5
68628;BME280;55611;48.602;9.490;2023-05-08T10:13:47;97300;;;21.5;62.5
68628;BME280;55611;48.602;9.490;2023-05-08T10:16:17;97290;;;21.9;62.5
68628;BME280;55611;48.602;9.490;2023-05-08T10:18:49;97300;;;21.9;62.5
68628;BME280;55611;48.602;9.490;2023-05-08T10:21:19;97300;;;21.8;62
68628;BME280;55611;48.602;9.490;2023-05-08T10:23:49;97290;;;21.6;62
68628;BME280;55611;48.602;9.490;2023-05-08T10:26:24;97290;;;21.4;62
68628;BME280;55611;48.602;9.490;2023-05-08T10:33:53;97290;;;21;62.5
68628;BME280;55611;48.602;9.490;2023-05-08T10:36:22;97290;;;21;62
68628;BME280;55611;48.602;9.490;2023-05-08T10:38:52;97290;;;21;62
68628;BME280;55611;48.602;9.490;2023-05-08T10:41:22;97290;;;21;62
68628;BME280;55611;48.602;9.490;2023-05-08T10:43:53;97290;;;21;61.5
68628;BME280;55611;48.602;9.490;2023-05-08T10:46:28;97300;;;20.9;61.5
68628;BME280;55611;48.602;9.490;2023-05-08T10:48:57;97290;;;20.7;61.5
68628;BME280;55611;48.602;9.490;2023-05-08T10:51:32;97290;;;20.6;61.5
68628;BME280;55611;48.602;9.490;2023-05-08T10:53:58;97290;;;20.5;61.5
68628;BME280;55611;48.602;9.490;2023-05-08T10:56:26;97290;;;20.4;61.5
68628;BME280;55611;48.602;9.490;2023-05-08T10:58:56;97290;;;20.3;61.5
68628;BME280;55611;48.602;9.490;2023-05-08T11:01:27;97280;;;20.2;61.5
68628;BME280;55611;48.602;9.490;2023-05-08T11:03:57;97290;;;20.2;61.5
68628;BME280;55611;48.602;9.490;2023-05-08T11:06:58;97290;;;20.2;61.5
68628;BME280;55611;48.602;9.490;2023-05-08T11:08:58;97290;;;20.1;61.5
68628;BME280;55611;48.602;9.490;2023-05-08T11:21:29;97290;;;19.7;62
68628;BME280;55611;48.602;9.490;2023-05-08T11:24:00;97280;;;19.8;62
68628;BME280;55611;48.602;9.490;2023-05-08T11:26:38;97280;;;19.8;62
68628;BME280;55611;48.602;9.490;2023-05-08T11:34:02;97280;;;19.8;61.5
68628;BME280;55611;48.602;9.490;2023-05-08T11:36:32;97280;;;19.8;61.5
68628;BME280;55611;48.602;9.490;2023-05-08T11:39:04;97280;;;19.8;61.5
68628;BME280;55611;48.602;9.490;2023-05-08T11:41:33;97270;;;19.6;62
68628;BME280;55611;48.602;9.490;2023-05-08T11:44:08;97280;;;19.5;62
68628;BME280;55611;48.602;9.490;2023-05-08T11:46:39;97280;;;19.4;62
68628;BME280;55611;48.602;9.490;2023-05-08T11:49:09;97280;;;19.4;62
68628;BME280;55611;48.602;9.490;2023-05-08T11:51:35;97280;;;19.3;62
68628;BME280;55611;48.602;9.490;2023-05-08T11:54:06;97280;;;19;62
68628;BME280;55611;48.602;9.490;2023-05-08T11:56:37;97280;;;18.7;62.5
68628;BME280;55611;48.602;9.490;2023-05-08T12:01:37;97280;;;18.3;63
68628;BME280;55611;48.602;9.490;2023-05-08T12:06:39;97280;;;18.2;63
68628;BME280;55611;48.602;9.490;2023-05-08T12:09:10;97280;;;18.2;63
68628;BME280;55611;48.602;9.490;2023-05-08T12:11:39;97280;;;18.2;63
68628;BME280;55611;48.602;9.490;2023-05-08T12:14:10;97280;;;18.2;62.5
68628;BME280;55611;48.602;9.490;2023-05-08T12:16:40;97280;;;18.3;62.5
68628;BME280;55611;48.602;9.490;2023-05-08T12:19:12;97280;;;18.4;62.5
68628;BME280;55611;48.602;9.490;2023-05-08T12:21:45;97280;;;18.4;62.5
68628;BME280;55611;48.602;9.490;2023-05-08T12:24:12;97280;;;18.4;62.5
68628;BME280;55611;48.602;9.490;2023-05-08T12:26:42;97280;;;18.3;62.5
68628;BME280;55611;48.602;9.490;2023-05-08T12:29:13;97280;;;18.4;62.5
68628;BME280;55611;48.602;9.490;2023-05-08T12:31:43;97280;;;18.4;62.5
68628;BME280;55611;48.602;9.490;2023-05-08T12:34:14;97280;;;18.3;62.5
68628;BME280;55611;48.602;9.490;2023-05-08T12:36:44;97280;;;18.6;62
68628;BME280;55611;48.602;9.490;2023-05-08T12:39:15;97280;;;18.6;62
68628;BME280;55611;48.602;9.490;2023-05-08T12:41:46;97280;;;18.5;62.5
68628;BME280;55611;48.602;9.490;2023-05-08T12:44:17;97280;;;18.5;62.5
68628;BME280;55611;48.602;9.490;2023-05-08T12:46:48;97280;;;18.5;62.5
68628;BME280;55611;48.602;9.490;2023-05-08T12:49:25;97280;;;18.4;62.5
68628;BME280;55611;48.602;9.490;2023-05-08T12:51:47;97290;;;18.4;62.5
68628;BME280;55611;48.602;9.490;2023-05-08T12:54:18;97290;;;18.3;63
68628;BME280;55611;48.602;9.490;2023-05-08T12:56:48;97290;;;18.3;63
68628;BME280;55611;48.602;9.490;2023-05-08T12:59:27;97290;;;18.2;62.5
68628;BME280;55611;48.602;9.490;2023-05-08T13:01:49;97290;;;18.1;63
68628;BME280;55611;48.602;9.490;2023-05-08T13:04:20;97290;;;18.1;63
68628;BME280;55611;48.602;9.490;2023-05-08T13:06:57;97290;;;18.1;63
68628;BME280;55611;48.602;9.490;2023-05-08T13:09:21;97290;;;18.1;63
68628;BME280;55611;48.602;9.490;2023-05-08T13:11:51;97290;;;18.2;63
68628;BME280;55611;48.602;9.490;2023-05-08T13:14:22;97290;;;18.4;62.5
68628;BME280;55611;48.602;9.490;2023-05-08T13:16:52;97280;;;18.4;62.5
68628;BME280;55611;48.602;9.490;2023-05-08T13:19:23;97290;;;18.4;62.5
68628;BME280;55611;48.602;9.490;2023-05-08T13:21:53;97280;;;18.5;62.5
68628;BME280;55611;48.602;9.490;2023-05-08T13:24:24;97290;;;18.6;62.5
68628;BME280;55611;48.602;9.490;2023-05-08T13:26:54;97290;;;18.6;62.5
68628;BME280;55611;48.602;9.490;2023-05-08T13:29:25;97290;;;18.6;62.5
68628;BME280;55611;48.602;9.490;2023-05-08T13:31:55;97290;;;18.6;62.5
68628;BME280;55611;48.602;9.490;2023-05-08T13:34:26;97280;;;18.7;62.5
68628;BME280;55611;48.602;9.490;2023-05-08T13:36:57;97280;;;18.7;62.5
68628;BME280;55611;48.602;9.490;2023-05-08T13:39:27;97270;;;18.6;62.5
68628;BME280;55611;48.602;9.490;2023-05-08T13:41:58;97280;;;18.8;62.5
68628;BME280;55611;48.602;9.490;2023-05-08T13:44:28;97270;;;18.8;62.5
68628;BME280;55611;48.602;9.490;2023-05-08T13:46:59;97270;;;18.9;62.5
68628;BME280;55611;48.602;9.490;2023-05-08T13:49:29;97280;;;18.9;62.5
68628;BME280;55611;48.602;9.490;2023-05-08T13:52:00;97280;;;18.8;62.5
68628;BME280;55611;48.602;9.490;2023-05-08T13:54:30;97270;;;18.9;62.5
68628;BME280;55611;48.602;9.490;2023-05-08T13:57:01;97270;;;18.9;63
68628;BME280;55611;48.602;9.490;2023-05-08T13:59:31;97260;;;18.9;62.5
68628;BME280;55611;48.602;9.490;2023-05-08T14:02:02;97260;;;19.1;62.5
68628;BME280;55611;48.602;9.490;2023-05-08T14:04:32;97260;;;19.1;62.5
68628;BME280;55611;48.602;9.490;2023-05-08T14:07:03;97260;;;19.2;62.5
68628;BME280;55611;48.602;9.490;2023-05-08T14:09:33;97260;;;19.2;62.5
68628;BME280;55611;48.602;9.490;2023-05-08T14:12:04;97260;;;19.2;63
68628;BME280;55611;48.602;9.490;2023-05-08T14:14:34;97260;;;19.2;63
68628;BME280;55611;48.602;9.490;2023-05-08T14:17:05;97260;;;19.2;63
68628;BME280;55611;48.602;9.490;2023-05-08T14:19:35;97250;;;19.3;63
68628;BME280;55611;48.602;9.490;2023-05-08T14:22:06;97250;;;19.3;63
68628;BME280;55611;48.602;9.490;2023-05-08T14:24:36;97260;;;19.1;63
68628;BME280;55611;48.602;9.490;2023-05-08T14:27:07;97250;;;19.1;63.5
68628;BME280;55611;48.602;9.490;2023-05-08T14:29:37;97250;;;19.1;63.5
68628;BME280;55611;48.602;9.490;2023-05-08T14:32:08;97250;;;19.3;63
68628;BME280;55611;48.602;9.490;2023-05-08T14:34:38;97250;;;19.2;63.5
68628;BME280;55611;48.602;9.490;2023-05-08T14:37:09;97250;;;19.2;63.5
68628;BME280;55611;48.602;9.490;2023-05-08T14:39:39;97240;;;19.3;63
68628;BME280;55611;48.602;9.490;2023-05-08T14:42:10;97250;;;19.5;63
68628;BME280;55611;48.602;9.490;2023-05-08T14:44:40;97260;;;19.8;62.5
68628;BME280;55611;48.602;9.490;2023-05-08T14:47:11;97250;;;20;62
68628;BME280;55611;48.602;9.490;2023-05-08T14:49:42;97250;;;20.3;62
68628;BME280;55611;48.602;9.490;2023-05-08T14:52:12;97260;;;20.5;62
68628;BME280;55611;48.602;9.490;2023-05-08T14:54:42;97260;;;20.7;62
68628;BME280;55611;48.602;9.490;2023-05-08T14:57:13;97250;;;20.9;62
68628;BME280;55611;48.602;9.490;2023-05-08T14:59:44;97250;;;21;62
68628;BME280;55611;48.602;9.490;2023-05-08T15:02:14;97250;;;20.9;62
68628;BME280;55611;48.602;9.490;2023-05-08T15:04:45;97250;;;20.8;61.5
68628;BME280;55611;48.602;9.490;2023-05-08T15:07:15;97250;;;20.9;61.5
68628;BME280;55611;48.602;9.490;2023-05-08T15:09:46;97250;;;21;61.5
68628;BME280;55611;48.602;9.490;2023-05-08T15:12:16;97250;;;20.9;62
68628;BME280;55611;48.602;9.490;2023-05-08T15:14:47;97240;;;20.8;61.5
68628;BME280;55611;48.602;9.490;2023-05-08T15:17:17;97240;;;20.8;62
68628;BME280;55611;48.602;9.490;2023-05-08T15:19:48;97250;;;20.7;62
68628;BME280;55611;48.602;9.490;2023-05-08T15:22:18;97250;;;20.8;62
68628;BME280;55611;48.602;9.490;2023-05-08T15:24:49;97250;;;20.9;62
68628;BME280;55611;48.602;9.490;2023-05-08T15:27:19;97250;;;21;62
68628;BME280;55611;48.602;9.490;2023-05-08T15:29:50;97250;;;21.1;62
68628;BME280;55611;48.602;9.490;2023-05-08T15:32:20;97240;;;20.9;62
68628;BME280;55611;48.602;9.490;2023-05-08T15:34:51;97240;;;20.8;62
68628;BME280;55611;48.602;9.490;2023-05-08T15:37:21;97240;;;20.8;62.5
68628;BME280;55611;48.602;9.490;2023-05-08T15:39:52;97250;;;20.6;62.5
68628;BME280;55611;48.602;9.490;2023-05-08T15:42:22;97250;;;20.7;62.5
68628;BME280;55611;48.602;9.490;2023-05-08T15:44:55;97250;;;20.8;62.5
68628;BME280;55611;48.602;9.490;2023-05-08T15:47:24;97240;;;20.9;62.5
68628;BME280;55611;48.602;9.490;2023-05-08T15:52:24;97240;;;20.9;62.5
68628;BME280;55611;48.602;9.490;2023-05-08T15:54:55;97240;;;20.9;62.5
68628;BME280;55611;48.602;9.490;2023-05-08T15:57:25;97240;;;20.9;62
68628;BME280;55611;48.602;9.490;2023-05-08T15:59:56;97240;;;20.9;62
68628;BME280;55611;48.602;9.490;2023-05-08T16:02:26;97240;;;21.1;62
68628;BME280;55611;48.602;9.490;2023-05-08T16:04:57;97240;;;21.2;62
68628;BME280;55611;48.602;9.490;2023-05-08T16:07:27;97240;;;21.1;62.5
68628;BME280;55611;48.602;9.490;2023-05-08T16:09:58;97250;;;20.8;62.5
68628;BME280;55611;48.602;9.490;2023-05-08T16:12:28;97250;;;20.7;62.5
68628;BME280;55611;48.602;9.490;2023-05-08T16:14:59;97250;;;20.6;62.5
68628;BME280;55611;48.602;9.490;2023-05-08T16:17:29;97250;;;20.3;62.5
68628;BME280;55611;48.602;9.490;2023-05-08T16:20:00;97250;;;20.2;62.5
68628;BME280;55611;48.602;9.490;2023-05-08T16:25:01;97260;;;20.1;62.5
68628;BME280;55611;48.602;9.490;2023-05-08T16:27:31;97260;;;20.1;62.5